sensor_id;sensor_type;location;lat;lon;timestamp;temperature;humidity
2995;DHT22;35277;49.890;8.222;2022-11-20T00:01:18;21.80;73.10
2995;DHT22;35277;49.890;8.222;2022-11-20T00:03:46;21.80;73.10
2995;DHT22;35277;49.890;8.222;2022-11-20T00:06:17;21.80;73.20
2995;DHT22;35277;49.890;8.222;2022-11-20T00:08:45;21.80;73.10
2995;DHT22;35277;49.890;8.222;2022-11-20T00:11:14;21.80;73.10
2995;DHT22;35277;49.890;8.222;2022-11-20T00:13:43;21.80;74.00
2995;DHT22;35277;49.890;8.222;2022-11-20T00:16:13;21.80;73.10
2995;DHT22;35277;49.890;8.222;2022-11-20T00:18:43;21.80;73.10
2995;DHT22;35277;49.890;8.222;2022-11-20T00:21:13;21.80;73.20
2995;DHT22;35277;49.890;8.222;2022-11-20T00:23:42;21.80;73.20
2995;DHT22;35277;49.890;8.222;2022-11-20T00:26:12;21.80;73.20
2995;DHT22;35277;49.890;8.222;2022-11-20T00:28:40;21.80;73.20
2995;DHT22;35277;49.890;8.222;2022-11-20T00:31:10;21.80;73.20
2995;DHT22;35277;49.890;8.222;2022-11-20T00:33:38;21.80;73.20
2995;DHT22;35277;49.890;8.222;2022-11-20T00:36:09;21.80;73.30
2995;DHT22;35277;49.890;8.222;2022-11-20T00:38:37;21.80;74.00
2995;DHT22;35277;49.890;8.222;2022-11-20T00:41:06;21.80;73.20
2995;DHT22;35277;49.890;8.222;2022-11-20T00:43:36;21.80;73.30
2995;DHT22;35277;49.890;8.222;2022-11-20T00:46:06;21.80;73.30
2995;DHT22;35277;49.890;8.222;2022-11-20T00:48:34;21.80;73.30
2995;DHT22;35277;49.890;8.222;2022-11-20T00:51:02;21.80;73.30
2995;DHT22;35277;49.890;8.222;2022-11-20T00:53:32;21.80;73.30
2995;DHT22;35277;49.890;8.222;2022-11-20T00:56:01;21.80;73.30
2995;DHT22;35277;49.890;8.222;2022-11-20T00:58:30;21.80;73.30
2995;DHT22;35277;49.890;8.222;2022-11-20T01:01:03;21.80;73.30
2995;DHT22;35277;49.890;8.222;2022-11-20T01:03:31;21.80;73.30
2995;DHT22;35277;49.890;8.222;2022-11-20T01:06:00;21.80;74.10
2995;DHT22;35277;49.890;8.222;2022-11-20T01:08:33;21.80;73.40
2995;DHT22;35277;49.890;8.222;2022-11-20T01:11:04;21.80;73.30
2995;DHT22;35277;49.890;8.222;2022-11-20T01:13:32;21.80;73.30
2995;DHT22;35277;49.890;8.222;2022-11-20T01:16:07;21.80;73.30
2995;DHT22;35277;49.890;8.222;2022-11-20T01:18:37;21.70;73.20
2995;DHT22;35277;49.890;8.222;2022-11-20T01:21:06;21.80;73.30
2995;DHT22;35277;49.890;8.222;2022-11-20T01:23:37;21.80;73.40
2995;DHT22;35277;49.890;8.222;2022-11-20T01:26:08;21.80;73.40
2995;DHT22;35277;49.890;8.222;2022-11-20T01:28:37;21.80;73.40
2995;DHT22;35277;49.890;8.222;2022-11-20T01:31:10;21.80;73.40
2995;DHT22;35277;49.890;8.222;2022-11-20T01:33:39;21.80;73.40
2995;DHT22;35277;49.890;8.222;2022-11-20T01:36:08;21.80;73.40
2995;DHT22;35277;49.890;8.222;2022-11-20T01:38:38;21.80;73.40
2995;DHT22;35277;49.890;8.222;2022-11-20T01:41:07;21.80;73.40
2995;DHT22;35277;49.890;8.222;2022-11-20T01:43:35;21.80;73.40
2995;DHT22;35277;49.890;8.222;2022-11-20T01:46:06;21.80;73.40
2995;DHT22;35277;49.890;8.222;2022-11-20T01:48:37;21.80;73.40
2995;DHT22;35277;49.890;8.222;2022-11-20T01:51:13;21.80;73.40
2995;DHT22;35277;49.890;8.222;2022-11-20T01:53:45;21.80;73.40
2995;DHT22;35277;49.890;8.222;2022-11-20T01:56:14;21.80;73.40
2995;DHT22;35277;49.890;8.222;2022-11-20T01:58:46;21.80;73.50
2995;DHT22;35277;49.890;8.222;2022-11-20T02:01:15;21.80;73.40
2995;DHT22;35277;49.890;8.222;2022-11-20T02:03:44;21.80;73.50
2995;DHT22;35277;49.890;8.222;2022-11-20T02:06:16;21.80;73.50
2995;DHT22;35277;49.890;8.222;2022-11-20T02:08:46;21.80;73.50
2995;DHT22;35277;49.890;8.222;2022-11-20T02:11:14;21.80;73.50
2995;DHT22;35277;49.890;8.222;2022-11-20T02:13:41;21.80;73.50
2995;DHT22;35277;49.890;8.222;2022-11-20T02:16:14;21.80;73.50
2995;DHT22;35277;49.890;8.222;2022-11-20T02:18:44;21.80;73.50
2995;DHT22;35277;49.890;8.222;2022-11-20T02:21:20;21.80;73.50
2995;DHT22;35277;49.890;8.222;2022-11-20T02:24:04;21.80;73.50
2995;DHT22;35277;49.890;8.222;2022-11-20T02:26:38;21.80;73.50
2995;DHT22;35277;49.890;8.222;2022-11-20T02:29:07;21.80;73.50
2995;DHT22;35277;49.890;8.222;2022-11-20T02:31:40;21.80;73.50
2995;DHT22;35277;49.890;8.222;2022-11-20T02:34:09;21.70;73.40
2995;DHT22;35277;49.890;8.222;2022-11-20T02:36:39;21.70;73.40
2995;DHT22;35277;49.890;8.222;2022-11-20T02:39:11;21.80;73.50
2995;DHT22;35277;49.890;8.222;2022-11-20T02:41:43;21.80;73.50
2995;DHT22;35277;49.890;8.222;2022-11-20T02:44:11;21.80;73.50
2995;DHT22;35277;49.890;8.222;2022-11-20T02:46:38;21.80;73.50
2995;DHT22;35277;49.890;8.222;2022-11-20T02:49:06;21.80;73.50
2995;DHT22;35277;49.890;8.222;2022-11-20T02:51:34;21.70;73.50
2995;DHT22;35277;49.890;8.222;2022-11-20T02:54:02;21.70;73.40
2995;DHT22;35277;49.890;8.222;2022-11-20T02:56:31;21.80;73.50
2995;DHT22;35277;49.890;8.222;2022-11-20T02:58:59;21.70;73.50
2995;DHT22;35277;49.890;8.222;2022-11-20T03:01:27;21.80;74.40
2995;DHT22;35277;49.890;8.222;2022-11-20T03:03:55;21.70;73.50
2995;DHT22;35277;49.890;8.222;2022-11-20T03:06:23;21.80;73.60
2995;DHT22;35277;49.890;8.222;2022-11-20T03:08:50;21.70;73.50
2995;DHT22;35277;49.890;8.222;2022-11-20T03:11:18;21.80;73.60
2995;DHT22;35277;49.890;8.222;2022-11-20T03:13:47;21.80;73.60
2995;DHT22;35277;49.890;8.222;2022-11-20T03:16:17;21.70;73.50
2995;DHT22;35277;49.890;8.222;2022-11-20T03:18:46;21.80;73.60
2995;DHT22;35277;49.890;8.222;2022-11-20T03:21:14;21.80;73.60
2995;DHT22;35277;49.890;8.222;2022-11-20T03:23:43;21.80;73.60
2995;DHT22;35277;49.890;8.222;2022-11-20T03:26:12;21.80;73.70
2995;DHT22;35277;49.890;8.222;2022-11-20T03:28:41;21.80;73.70
2995;DHT22;35277;49.890;8.222;2022-11-20T03:31:12;21.70;73.60
2995;DHT22;35277;49.890;8.222;2022-11-20T03:33:41;21.70;73.60
2995;DHT22;35277;49.890;8.222;2022-11-20T03:36:11;21.80;73.80
2995;DHT22;35277;49.890;8.222;2022-11-20T03:38:39;21.70;73.70
2995;DHT22;35277;49.890;8.222;2022-11-20T03:41:09;21.80;73.80
2995;DHT22;35277;49.890;8.222;2022-11-20T03:43:37;21.80;73.80
2995;DHT22;35277;49.890;8.222;2022-11-20T03:46:06;21.70;73.70
2995;DHT22;35277;49.890;8.222;2022-11-20T03:48:35;21.80;73.80
2995;DHT22;35277;49.890;8.222;2022-11-20T03:51:08;21.80;73.80
2995;DHT22;35277;49.890;8.222;2022-11-20T03:53:36;21.80;73.90
2995;DHT22;35277;49.890;8.222;2022-11-20T03:56:05;21.80;73.90
2995;DHT22;35277;49.890;8.222;2022-11-20T03:58:33;21.70;73.70
2995;DHT22;35277;49.890;8.222;2022-11-20T04:01:06;21.80;73.90
2995;DHT22;35277;49.890;8.222;2022-11-20T04:03:35;21.80;73.90
2995;DHT22;35277;49.890;8.222;2022-11-20T04:06:05;21.80;73.90
2995;DHT22;35277;49.890;8.222;2022-11-20T04:08:33;21.80;73.90
2995;DHT22;35277;49.890;8.222;2022-11-20T04:11:11;21.70;73.80
2995;DHT22;35277;49.890;8.222;2022-11-20T04:13:40;21.80;73.90
2995;DHT22;35277;49.890;8.222;2022-11-20T04:16:09;21.80;73.90
2995;DHT22;35277;49.890;8.222;2022-11-20T04:18:38;21.80;73.90
2995;DHT22;35277;49.890;8.222;2022-11-20T04:21:06;21.70;73.80
2995;DHT22;35277;49.890;8.222;2022-11-20T04:23:34;21.80;73.90
2995;DHT22;35277;49.890;8.222;2022-11-20T04:26:03;21.70;73.80
2995;DHT22;35277;49.890;8.222;2022-11-20T04:28:31;21.80;73.90
2995;DHT22;35277;49.890;8.222;2022-11-20T04:31:03;21.70;73.80
2995;DHT22;35277;49.890;8.222;2022-11-20T04:33:31;21.80;74.00
2995;DHT22;35277;49.890;8.222;2022-11-20T04:36:03;21.70;73.80
2995;DHT22;35277;49.890;8.222;2022-11-20T04:38:32;21.70;73.80
2995;DHT22;35277;49.890;8.222;2022-11-20T04:41:01;21.70;73.80
2995;DHT22;35277;49.890;8.222;2022-11-20T04:43:29;21.80;74.00
2995;DHT22;35277;49.890;8.222;2022-11-20T04:45:58;21.80;74.00
2995;DHT22;35277;49.890;8.222;2022-11-20T04:48:27;21.80;74.00
2995;DHT22;35277;49.890;8.222;2022-11-20T04:50:55;21.70;73.80
2995;DHT22;35277;49.890;8.222;2022-11-20T04:53:24;21.80;74.00
2995;DHT22;35277;49.890;8.222;2022-11-20T04:55:59;21.70;73.90
2995;DHT22;35277;49.890;8.222;2022-11-20T04:58:27;21.70;73.90
2995;DHT22;35277;49.890;8.222;2022-11-20T05:01:01;21.80;74.00
2995;DHT22;35277;49.890;8.222;2022-11-20T05:03:29;21.80;74.00
2995;DHT22;35277;49.890;8.222;2022-11-20T05:06:00;21.70;73.90
2995;DHT22;35277;49.890;8.222;2022-11-20T05:08:30;21.70;73.90
2995;DHT22;35277;49.890;8.222;2022-11-20T05:11:02;21.70;73.90
2995;DHT22;35277;49.890;8.222;2022-11-20T05:13:29;21.70;73.80
2995;DHT22;35277;49.890;8.222;2022-11-20T05:16:01;21.80;74.00
2995;DHT22;35277;49.890;8.222;2022-11-20T05:18:29;21.80;73.80
2995;DHT22;35277;49.890;8.222;2022-11-20T05:20:58;21.70;73.70
2995;DHT22;35277;49.890;8.222;2022-11-20T05:23:26;21.70;73.60
2995;DHT22;35277;49.890;8.222;2022-11-20T05:25:57;21.80;73.70
2995;DHT22;35277;49.890;8.222;2022-11-20T05:28:26;21.80;73.60
2995;DHT22;35277;49.890;8.222;2022-11-20T05:30:54;21.70;73.40
2995;DHT22;35277;49.890;8.222;2022-11-20T05:33:22;21.70;73.40
2995;DHT22;35277;49.890;8.222;2022-11-20T05:35:50;21.70;73.30
2995;DHT22;35277;49.890;8.222;2022-11-20T05:38:18;21.70;73.20
2995;DHT22;35277;49.890;8.222;2022-11-20T05:40:45;21.70;73.20
2995;DHT22;35277;49.890;8.222;2022-11-20T05:43:14;21.70;73.10
2995;DHT22;35277;49.890;8.222;2022-11-20T05:45:42;21.70;73.10
2995;DHT22;35277;49.890;8.222;2022-11-20T05:48:10;21.70;73.00
2995;DHT22;35277;49.890;8.222;2022-11-20T05:50:38;21.70;73.00
2995;DHT22;35277;49.890;8.222;2022-11-20T05:53:05;21.70;72.90
2995;DHT22;35277;49.890;8.222;2022-11-20T05:55:33;21.70;72.80
2995;DHT22;35277;49.890;8.222;2022-11-20T05:58:01;21.70;72.70
2995;DHT22;35277;49.890;8.222;2022-11-20T06:00:30;21.70;73.50
2995;DHT22;35277;49.890;8.222;2022-11-20T06:02:58;21.70;72.70
2995;DHT22;35277;49.890;8.222;2022-11-20T06:05:25;21.70;72.60
2995;DHT22;35277;49.890;8.222;2022-11-20T06:07:53;21.70;72.60
2995;DHT22;35277;49.890;8.222;2022-11-20T06:10:21;21.70;72.50
2995;DHT22;35277;49.890;8.222;2022-11-20T06:12:49;21.70;72.50
2995;DHT22;35277;49.890;8.222;2022-11-20T06:15:16;21.70;72.40
2995;DHT22;35277;49.890;8.222;2022-11-20T06:17:46;21.70;72.40
2995;DHT22;35277;49.890;8.222;2022-11-20T06:20:13;21.70;72.30
2995;DHT22;35277;49.890;8.222;2022-11-20T06:22:41;21.70;72.30
2995;DHT22;35277;49.890;8.222;2022-11-20T06:25:09;21.70;72.20
2995;DHT22;35277;49.890;8.222;2022-11-20T06:27:37;21.70;72.20
2995;DHT22;35277;49.890;8.222;2022-11-20T06:30:05;21.70;72.10
2995;DHT22;35277;49.890;8.222;2022-11-20T06:32:33;21.60;71.90
2995;DHT22;35277;49.890;8.222;2022-11-20T06:35:03;21.70;72.10
2995;DHT22;35277;49.890;8.222;2022-11-20T06:37:31;21.70;72.00
2995;DHT22;35277;49.890;8.222;2022-11-20T06:39:58;21.60;71.80
2995;DHT22;35277;49.890;8.222;2022-11-20T06:42:26;21.60;71.80
2995;DHT22;35277;49.890;8.222;2022-11-20T06:44:54;21.70;71.80
2995;DHT22;35277;49.890;8.222;2022-11-20T06:47:22;21.70;71.80
2995;DHT22;35277;49.890;8.222;2022-11-20T06:49:50;21.70;71.80
2995;DHT22;35277;49.890;8.222;2022-11-20T06:52:19;21.60;71.70
2995;DHT22;35277;49.890;8.222;2022-11-20T06:54:46;21.70;71.70
2995;DHT22;35277;49.890;8.222;2022-11-20T06:57:14;21.70;71.70
2995;DHT22;35277;49.890;8.222;2022-11-20T06:59:42;21.70;71.60
2995;DHT22;35277;49.890;8.222;2022-11-20T07:02:10;21.70;71.60
2995;DHT22;35277;49.890;8.222;2022-11-20T07:04:38;21.60;71.40
2995;DHT22;35277;49.890;8.222;2022-11-20T07:07:06;21.60;71.40
2995;DHT22;35277;49.890;8.222;2022-11-20T07:09:35;21.70;71.50
2995;DHT22;35277;49.890;8.222;2022-11-20T07:12:03;21.70;71.50
2995;DHT22;35277;49.890;8.222;2022-11-20T07:14:31;21.60;71.30
2995;DHT22;35277;49.890;8.222;2022-11-20T07:16:59;21.70;71.60
2995;DHT22;35277;49.890;8.222;2022-11-20T07:19:26;21.60;72.00
2995;DHT22;35277;49.890;8.222;2022-11-20T07:21:54;21.60;72.40
2995;DHT22;35277;49.890;8.222;2022-11-20T07:24:22;21.60;72.40
2995;DHT22;35277;49.890;8.222;2022-11-20T07:26:51;21.70;72.50
2995;DHT22;35277;49.890;8.222;2022-11-20T07:29:19;21.60;72.30
2995;DHT22;35277;49.890;8.222;2022-11-20T07:31:47;21.70;72.10
2995;DHT22;35277;49.890;8.222;2022-11-20T07:34:15;21.70;71.80
2995;DHT22;35277;49.890;8.222;2022-11-20T07:36:42;21.60;71.30
2995;DHT22;35277;49.890;8.222;2022-11-20T07:39:10;21.70;71.00
2995;DHT22;35277;49.890;8.222;2022-11-20T07:41:38;21.70;70.50
2995;DHT22;35277;49.890;8.222;2022-11-20T07:44:07;21.70;70.00
2995;DHT22;35277;49.890;8.222;2022-11-20T07:46:35;21.70;69.50
2995;DHT22;35277;49.890;8.222;2022-11-20T07:49:02;21.70;69.00
2995;DHT22;35277;49.890;8.222;2022-11-20T07:51:30;21.60;68.50
2995;DHT22;35277;49.890;8.222;2022-11-20T07:53:58;21.60;68.20
2995;DHT22;35277;49.890;8.222;2022-11-20T07:56:26;21.60;67.80
2995;DHT22;35277;49.890;8.222;2022-11-20T07:58:54;21.60;67.40
2995;DHT22;35277;49.890;8.222;2022-11-20T08:01:23;21.50;67.00
2995;DHT22;35277;49.890;8.222;2022-11-20T08:03:51;21.60;66.90
2995;DHT22;35277;49.890;8.222;2022-11-20T08:06:18;21.50;66.40
2995;DHT22;35277;49.890;8.222;2022-11-20T08:08:46;21.50;66.10
2995;DHT22;35277;49.890;8.222;2022-11-20T08:11:14;21.50;65.90
2995;DHT22;35277;49.890;8.222;2022-11-20T08:13:59;21.50;65.70
2995;DHT22;35277;49.890;8.222;2022-11-20T08:16:41;21.50;65.50
2995;DHT22;35277;49.890;8.222;2022-11-20T08:19:10;21.50;65.30
2995;DHT22;35277;49.890;8.222;2022-11-20T08:21:39;21.40;65.00
2995;DHT22;35277;49.890;8.222;2022-11-20T08:24:07;21.50;65.10
2995;DHT22;35277;49.890;8.222;2022-11-20T08:26:36;21.50;65.00
2995;DHT22;35277;49.890;8.222;2022-11-20T08:29:04;21.50;65.00
2995;DHT22;35277;49.890;8.222;2022-11-20T08:31:32;21.50;65.10
2995;DHT22;35277;49.890;8.222;2022-11-20T08:34:02;21.50;65.20
2995;DHT22;35277;49.890;8.222;2022-11-20T08:36:35;21.50;65.30
2995;DHT22;35277;49.890;8.222;2022-11-20T08:39:03;21.50;65.50
2995;DHT22;35277;49.890;8.222;2022-11-20T08:41:31;21.50;65.70
2995;DHT22;35277;49.890;8.222;2022-11-20T08:44:01;21.60;66.20
2995;DHT22;35277;49.890;8.222;2022-11-20T08:46:32;21.60;66.40
2995;DHT22;35277;49.890;8.222;2022-11-20T08:49:03;21.60;66.60
2995;DHT22;35277;49.890;8.222;2022-11-20T08:51:31;21.60;66.70
2995;DHT22;35277;49.890;8.222;2022-11-20T08:53:58;21.60;67.00
2995;DHT22;35277;49.890;8.222;2022-11-20T08:56:26;21.70;67.20
2995;DHT22;35277;49.890;8.222;2022-11-20T08:58:55;21.60;67.10
2995;DHT22;35277;49.890;8.222;2022-11-20T09:01:42;21.70;67.20
2995;DHT22;35277;49.890;8.222;2022-11-20T09:04:12;21.60;66.90
2995;DHT22;35277;49.890;8.222;2022-11-20T09:06:40;21.60;66.50
2995;DHT22;35277;49.890;8.222;2022-11-20T09:09:08;21.60;66.00
2995;DHT22;35277;49.890;8.222;2022-11-20T09:11:36;21.50;65.40
2995;DHT22;35277;49.890;8.222;2022-11-20T09:14:04;21.50;65.10
2995;DHT22;35277;49.890;8.222;2022-11-20T09:16:31;21.40;65.00
2995;DHT22;35277;49.890;8.222;2022-11-20T09:18:59;21.40;64.90
2995;DHT22;35277;49.890;8.222;2022-11-20T09:21:48;21.30;64.60
2995;DHT22;35277;49.890;8.222;2022-11-20T09:24:16;21.30;64.50
2995;DHT22;35277;49.890;8.222;2022-11-20T09:26:44;21.30;64.30
2995;DHT22;35277;49.890;8.222;2022-11-20T09:29:12;21.20;63.90
2995;DHT22;35277;49.890;8.222;2022-11-20T09:31:39;21.20;63.70
2995;DHT22;35277;49.890;8.222;2022-11-20T09:34:07;21.20;63.80
2995;DHT22;35277;49.890;8.222;2022-11-20T09:36:36;21.20;63.90
2995;DHT22;35277;49.890;8.222;2022-11-20T09:39:05;21.10;63.90
2995;DHT22;35277;49.890;8.222;2022-11-20T09:41:54;21.20;64.00
2995;DHT22;35277;49.890;8.222;2022-11-20T09:44:35;21.20;63.90
2995;DHT22;35277;49.890;8.222;2022-11-20T09:47:08;21.20;63.90
2995;DHT22;35277;49.890;8.222;2022-11-20T09:49:51;21.20;64.00
2995;DHT22;35277;49.890;8.222;2022-11-20T09:52:30;21.30;64.30
2995;DHT22;35277;49.890;8.222;2022-11-20T09:55:03;21.30;65.50
2995;DHT22;35277;49.890;8.222;2022-11-20T09:57:36;21.30;65.00
2995;DHT22;35277;49.890;8.222;2022-11-20T10:00:05;21.40;66.10
2995;DHT22;35277;49.890;8.222;2022-11-20T10:02:44;21.40;65.30
2995;DHT22;35277;49.890;8.222;2022-11-20T10:05:17;21.50;65.80
2995;DHT22;35277;49.890;8.222;2022-11-20T10:07:50;21.50;66.60
2995;DHT22;35277;49.890;8.222;2022-11-20T10:10:33;21.50;67.20
2995;DHT22;35277;49.890;8.222;2022-11-20T10:13:20;21.60;67.80
2995;DHT22;35277;49.890;8.222;2022-11-20T10:16:02;21.60;68.10
2995;DHT22;35277;49.890;8.222;2022-11-20T10:18:41;21.60;68.60
2995;DHT22;35277;49.890;8.222;2022-11-20T10:21:17;21.70;69.00
2995;DHT22;35277;49.890;8.222;2022-11-20T10:24:02;21.80;69.10
2995;DHT22;35277;49.890;8.222;2022-11-20T10:26:40;21.70;69.00
2995;DHT22;35277;49.890;8.222;2022-11-20T10:29:12;21.80;69.20
2995;DHT22;35277;49.890;8.222;2022-11-20T10:31:42;21.80;69.40
2995;DHT22;35277;49.890;8.222;2022-11-20T10:34:19;21.80;69.40
2995;DHT22;35277;49.890;8.222;2022-11-20T10:36:52;21.80;69.60
2995;DHT22;35277;49.890;8.222;2022-11-20T10:39:26;21.90;69.80
2995;DHT22;35277;49.890;8.222;2022-11-20T10:41:57;21.90;70.00
2995;DHT22;35277;49.890;8.222;2022-11-20T10:44:27;21.90;70.80
2995;DHT22;35277;49.890;8.222;2022-11-20T10:47:15;21.90;70.10
2995;DHT22;35277;49.890;8.222;2022-11-20T10:49:45;21.90;70.10
2995;DHT22;35277;49.890;8.222;2022-11-20T10:52:23;21.90;70.20
2995;DHT22;35277;49.890;8.222;2022-11-20T10:54:58;21.90;70.10
2995;DHT22;35277;49.890;8.222;2022-11-20T10:57:46;22.00;70.20
2995;DHT22;35277;49.890;8.222;2022-11-20T11:00:18;22.00;70.20
2995;DHT22;35277;49.890;8.222;2022-11-20T11:02:48;22.00;70.20
2995;DHT22;35277;49.890;8.222;2022-11-20T11:05:31;22.00;70.20
2995;DHT22;35277;49.890;8.222;2022-11-20T11:08:00;22.00;70.50
2995;DHT22;35277;49.890;8.222;2022-11-20T11:10:32;22.00;70.30
2995;DHT22;35277;49.890;8.222;2022-11-20T11:13:04;22.00;70.30
2995;DHT22;35277;49.890;8.222;2022-11-20T11:15:38;22.00;70.30
2995;DHT22;35277;49.890;8.222;2022-11-20T11:18:09;22.00;70.30
2995;DHT22;35277;49.890;8.222;2022-11-20T11:20:37;22.00;70.30
2995;DHT22;35277;49.890;8.222;2022-11-20T11:23:05;22.00;70.10
2995;DHT22;35277;49.890;8.222;2022-11-20T11:25:38;22.00;70.00
2995;DHT22;35277;49.890;8.222;2022-11-20T11:28:20;22.00;69.90
2995;DHT22;35277;49.890;8.222;2022-11-20T11:30:51;22.00;69.90
2995;DHT22;35277;49.890;8.222;2022-11-20T11:33:21;21.90;69.80
2995;DHT22;35277;49.890;8.222;2022-11-20T11:35:49;22.00;69.90
2995;DHT22;35277;49.890;8.222;2022-11-20T11:38:23;22.00;70.00
2995;DHT22;35277;49.890;8.222;2022-11-20T11:40:55;22.00;70.00
2995;DHT22;35277;49.890;8.222;2022-11-20T11:43:26;22.00;70.20
2995;DHT22;35277;49.890;8.222;2022-11-20T11:46:25;22.00;70.20
2995;DHT22;35277;49.890;8.222;2022-11-20T11:48:58;22.10;70.30
2995;DHT22;35277;49.890;8.222;2022-11-20T11:51:34;22.00;70.30
2995;DHT22;35277;49.890;8.222;2022-11-20T11:54:13;22.10;70.50
2995;DHT22;35277;49.890;8.222;2022-11-20T11:56:42;22.10;70.50
2995;DHT22;35277;49.890;8.222;2022-11-20T11:59:18;22.10;70.40
2995;DHT22;35277;49.890;8.222;2022-11-20T12:01:53;22.10;70.40
2995;DHT22;35277;49.890;8.222;2022-11-20T12:04:30;22.20;70.60
2995;DHT22;35277;49.890;8.222;2022-11-20T12:07:10;22.20;70.70
2995;DHT22;35277;49.890;8.222;2022-11-20T12:10:00;22.30;70.90
2995;DHT22;35277;49.890;8.222;2022-11-20T12:12:32;22.30;71.00
2995;DHT22;35277;49.890;8.222;2022-11-20T12:15:11;22.40;71.40
2995;DHT22;35277;49.890;8.222;2022-11-20T12:17:39;22.40;71.80
2995;DHT22;35277;49.890;8.222;2022-11-20T12:20:11;22.40;71.90
2995;DHT22;35277;49.890;8.222;2022-11-20T12:22:47;22.50;72.50
2995;DHT22;35277;49.890;8.222;2022-11-20T12:25:21;22.50;72.70
2995;DHT22;35277;49.890;8.222;2022-11-20T12:28:05;22.50;72.80
2995;DHT22;35277;49.890;8.222;2022-11-20T12:30:41;22.60;73.30
2995;DHT22;35277;49.890;8.222;2022-11-20T12:33:35;22.60;73.20
2995;DHT22;35277;49.890;8.222;2022-11-20T12:36:16;22.70;73.40
2995;DHT22;35277;49.890;8.222;2022-11-20T12:39:02;22.70;73.40
2995;DHT22;35277;49.890;8.222;2022-11-20T12:41:49;22.70;73.60
2995;DHT22;35277;49.890;8.222;2022-11-20T12:47:50;22.80;73.50
2995;DHT22;35277;49.890;8.222;2022-11-20T12:50:23;22.90;73.50
2995;DHT22;35277;49.890;8.222;2022-11-20T12:53:02;22.90;73.40
2995;DHT22;35277;49.890;8.222;2022-11-20T12:55:39;22.90;73.40
2995;DHT22;35277;49.890;8.222;2022-11-20T12:58:15;22.80;73.20
2995;DHT22;35277;49.890;8.222;2022-11-20T13:00:54;22.90;73.40
2995;DHT22;35277;49.890;8.222;2022-11-20T13:03:34;22.80;73.20
2995;DHT22;35277;49.890;8.222;2022-11-20T13:06:11;22.80;73.20
2995;DHT22;35277;49.890;8.222;2022-11-20T13:08:42;22.80;73.20
2995;DHT22;35277;49.890;8.222;2022-11-20T13:11:16;22.80;73.20
2995;DHT22;35277;49.890;8.222;2022-11-20T13:14:00;22.80;73.20
2995;DHT22;35277;49.890;8.222;2022-11-20T13:16:35;22.80;73.30
2995;DHT22;35277;49.890;8.222;2022-11-20T13:19:10;22.70;73.10
2995;DHT22;35277;49.890;8.222;2022-11-20T13:21:40;22.70;73.20
2995;DHT22;35277;49.890;8.222;2022-11-20T13:24:21;22.70;73.20
2995;DHT22;35277;49.890;8.222;2022-11-20T13:27:00;22.70;73.10
2995;DHT22;35277;49.890;8.222;2022-11-20T13:29:28;22.70;73.10
2995;DHT22;35277;49.890;8.222;2022-11-20T13:32:05;22.60;73.00
2995;DHT22;35277;49.890;8.222;2022-11-20T13:34:36;22.60;73.10
2995;DHT22;35277;49.890;8.222;2022-11-20T13:37:04;22.60;73.10
2995;DHT22;35277;49.890;8.222;2022-11-20T13:39:33;22.60;73.10
2995;DHT22;35277;49.890;8.222;2022-11-20T13:42:18;22.60;73.10
2995;DHT22;35277;49.890;8.222;2022-11-20T13:44:52;22.60;73.10
2995;DHT22;35277;49.890;8.222;2022-11-20T13:47:22;22.60;73.00
2995;DHT22;35277;49.890;8.222;2022-11-20T13:49:52;22.60;73.00
2995;DHT22;35277;49.890;8.222;2022-11-20T13:52:34;22.60;73.00
2995;DHT22;35277;49.890;8.222;2022-11-20T13:55:12;22.60;72.80
2995;DHT22;35277;49.890;8.222;2022-11-20T14:00:32;22.50;72.40
2995;DHT22;35277;49.890;8.222;2022-11-20T14:03:06;22.50;72.30
2995;DHT22;35277;49.890;8.222;2022-11-20T14:05:40;22.50;72.20
2995;DHT22;35277;49.890;8.222;2022-11-20T14:08:16;22.50;72.10
2995;DHT22;35277;49.890;8.222;2022-11-20T14:10:47;22.50;72.10
2995;DHT22;35277;49.890;8.222;2022-11-20T14:13:18;22.50;72.10
2995;DHT22;35277;49.890;8.222;2022-11-20T14:15:46;22.50;72.10
2995;DHT22;35277;49.890;8.222;2022-11-20T14:18:19;22.50;72.10
2995;DHT22;35277;49.890;8.222;2022-11-20T14:20:49;22.50;72.00
2995;DHT22;35277;49.890;8.222;2022-11-20T14:23:25;22.50;72.00
2995;DHT22;35277;49.890;8.222;2022-11-20T14:25:56;22.50;72.00
2995;DHT22;35277;49.890;8.222;2022-11-20T14:28:26;22.50;72.00
2995;DHT22;35277;49.890;8.222;2022-11-20T14:30:55;22.50;72.00
2995;DHT22;35277;49.890;8.222;2022-11-20T14:33:25;22.50;72.00
2995;DHT22;35277;49.890;8.222;2022-11-20T14:35:56;22.50;72.00
2995;DHT22;35277;49.890;8.222;2022-11-20T14:38:27;22.50;72.00
2995;DHT22;35277;49.890;8.222;2022-11-20T14:41:05;22.50;72.00
2995;DHT22;35277;49.890;8.222;2022-11-20T14:43:33;22.50;72.00
2995;DHT22;35277;49.890;8.222;2022-11-20T14:46:05;22.50;72.00
2995;DHT22;35277;49.890;8.222;2022-11-20T14:48:38;22.40;71.80
2995;DHT22;35277;49.890;8.222;2022-11-20T14:51:09;22.40;71.70
2995;DHT22;35277;49.890;8.222;2022-11-20T14:53:37;22.40;71.60
2995;DHT22;35277;49.890;8.222;2022-11-20T14:56:05;22.40;71.60
2995;DHT22;35277;49.890;8.222;2022-11-20T14:58:33;22.30;71.50
2995;DHT22;35277;49.890;8.222;2022-11-20T15:01:03;22.40;71.60
2995;DHT22;35277;49.890;8.222;2022-11-20T15:03:32;22.40;71.50
2995;DHT22;35277;49.890;8.222;2022-11-20T15:06:00;22.40;71.50
2995;DHT22;35277;49.890;8.222;2022-11-20T15:08:30;22.30;71.40
2995;DHT22;35277;49.890;8.222;2022-11-20T15:10:58;22.40;71.50
2995;DHT22;35277;49.890;8.222;2022-11-20T15:13:29;22.40;71.40
2995;DHT22;35277;49.890;8.222;2022-11-20T15:15:59;22.40;71.40
2995;DHT22;35277;49.890;8.222;2022-11-20T15:18:29;22.40;71.20
2995;DHT22;35277;49.890;8.222;2022-11-20T15:21:01;22.30;70.90
2995;DHT22;35277;49.890;8.222;2022-11-20T15:23:30;22.30;70.60
2995;DHT22;35277;49.890;8.222;2022-11-20T15:25:58;22.20;70.30
2995;DHT22;35277;49.890;8.222;2022-11-20T15:28:30;22.20;70.10
2995;DHT22;35277;49.890;8.222;2022-11-20T15:30:58;22.10;69.90
2995;DHT22;35277;49.890;8.222;2022-11-20T15:33:27;22.10;69.80
2995;DHT22;35277;49.890;8.222;2022-11-20T15:35:54;22.10;69.70
2995;DHT22;35277;49.890;8.222;2022-11-20T15:38:22;22.10;69.60
2995;DHT22;35277;49.890;8.222;2022-11-20T15:40:51;22.10;69.60
2995;DHT22;35277;49.890;8.222;2022-11-20T15:43:19;22.10;69.50
2995;DHT22;35277;49.890;8.222;2022-11-20T15:45:49;22.00;69.40
2995;DHT22;35277;49.890;8.222;2022-11-20T15:48:20;22.00;69.30
2995;DHT22;35277;49.890;8.222;2022-11-20T15:50:52;22.00;69.20
2995;DHT22;35277;49.890;8.222;2022-11-20T15:53:20;22.00;69.20
2995;DHT22;35277;49.890;8.222;2022-11-20T15:55:48;22.00;69.10
2995;DHT22;35277;49.890;8.222;2022-11-20T15:58:17;22.00;69.10
2995;DHT22;35277;49.890;8.222;2022-11-20T16:00:45;22.00;69.10
2995;DHT22;35277;49.890;8.222;2022-11-20T16:03:14;22.00;69.00
2995;DHT22;35277;49.890;8.222;2022-11-20T16:05:42;22.00;69.00
2995;DHT22;35277;49.890;8.222;2022-11-20T16:08:10;22.00;68.90
2995;DHT22;35277;49.890;8.222;2022-11-20T16:10:38;22.00;68.90
2995;DHT22;35277;49.890;8.222;2022-11-20T16:13:12;21.90;68.90
2995;DHT22;35277;49.890;8.222;2022-11-20T16:16:01;22.00;69.00